createdAt,value
2023-04-02T00:00:11.173Z,99.99
2023-04-02T00:01:11.177Z,99.99
2023-04-02T00:02:11.157Z,99.99
2023-04-02T00:03:11.255Z,99.99
2023-04-02T00:04:11.204Z,99.99
2023-04-02T00:05:11.116Z,99.99
2023-04-02T00:06:11.086Z,99.99
2023-04-02T00:07:11.091Z,99.99
2023-04-02T00:08:11.078Z,99.99
2023-04-02T00:09:11.100Z,99.99
2023-04-02T00:10:11.109Z,99.99
2023-04-02T00:11:11.063Z,99.99
2023-04-02T00:12:11.038Z,99.99
2023-04-02T00:13:11.029Z,99.99
2023-04-02T00:14:11.026Z,99.99
2023-04-02T00:15:11.013Z,99.99
2023-04-02T00:16:11.023Z,99.99
2023-04-02T00:17:10.990Z,99.99
2023-04-02T00:18:11.044Z,99.99
2023-04-02T00:19:10.967Z,99.99
2023-04-02T00:20:10.980Z,99.99
2023-04-02T00:21:10.982Z,99.99
2023-04-02T00:22:10.955Z,99.99
2023-04-02T00:23:10.933Z,99.99
2023-04-02T00:24:10.978Z,99.99
2023-04-02T00:25:10.915Z,99.99
2023-04-02T00:26:10.888Z,99.99
2023-04-02T00:27:10.910Z,99.99
2023-04-02T00:28:10.882Z,99.99
2023-04-02T00:29:10.901Z,99.99
2023-04-02T00:30:10.849Z,99.99
2023-04-02T00:31:10.843Z,99.99
2023-04-02T00:32:10.930Z,99.99
2023-04-02T00:33:10.864Z,99.99
2023-04-02T00:34:10.812Z,99.99
2023-04-02T00:35:10.817Z,99.99
2023-04-02T00:36:10.834Z,99.99
2023-04-02T00:37:10.852Z,99.99
2023-04-02T00:38:10.832Z,99.99
2023-04-02T00:39:10.792Z,99.99
2023-04-02T00:40:10.764Z,99.99
2023-04-02T00:41:10.780Z,99.99
2023-04-02T00:42:10.742Z,99.99
2023-04-02T00:43:10.730Z,99.99
2023-04-02T00:44:10.739Z,99.99
2023-04-02T00:45:10.713Z,99.99
2023-04-02T00:46:10.722Z,99.99
2023-04-02T00:47:10.727Z,99.99
2023-04-02T00:48:10.704Z,99.99
2023-04-02T00:49:10.702Z,99.99
2023-04-02T00:50:10.684Z,99.99
2023-04-02T00:51:10.673Z,99.99
2023-04-02T00:52:10.700Z,99.99
2023-04-02T00:53:10.658Z,99.99
2023-04-02T00:54:17.131Z,99.99
2023-04-02T00:55:10.610Z,99.99
2023-04-02T00:56:10.583Z,99.99
2023-04-02T00:57:10.635Z,99.99
2023-04-02T00:58:10.568Z,99.99
2023-04-02T00:59:10.575Z,99.99
2023-04-02T01:00:10.585Z,99.99
2023-04-02T01:01:10.675Z,99.99
2023-04-02T01:02:10.565Z,99.99
2023-04-02T01:03:10.838Z,99.99
2023-04-02T01:04:10.506Z,99.99
2023-04-02T01:05:10.523Z,99.99
2023-04-02T01:06:10.800Z,99.99
2023-04-02T01:07:10.478Z,99.99
2023-04-02T01:08:10.480Z,99.99
2023-04-02T01:09:10.474Z,99.99
2023-04-02T01:10:10.447Z,99.99
2023-04-02T01:11:10.466Z,99.99
2023-04-02T01:12:10.465Z,99.99
2023-04-02T01:13:10.465Z,99.99
2023-04-02T01:14:10.417Z,99.99
2023-04-02T01:15:10.399Z,99.99
2023-04-02T01:16:10.435Z,99.99
2023-04-02T01:17:10.376Z,99.99
2023-04-02T01:18:10.403Z,99.99
2023-04-02T01:19:10.384Z,99.99
2023-04-02T01:20:10.407Z,99.99
2023-04-02T01:21:10.335Z,99.99
2023-04-02T01:22:10.371Z,99.99
2023-04-02T01:23:10.313Z,99.99
2023-04-02T01:24:10.347Z,99.99
2023-04-02T01:25:10.294Z,99.99
2023-04-02T01:26:10.337Z,99.99
2023-04-02T01:27:10.267Z,99.99
2023-04-02T01:28:10.261Z,99.99
2023-04-02T01:29:10.299Z,99.99
2023-04-02T01:30:10.302Z,99.99
2023-04-02T01:31:10.306Z,99.99
2023-04-02T01:32:10.240Z,99.99
2023-04-02T01:33:10.231Z,99.99
2023-04-02T01:34:10.219Z,99.99
2023-04-02T01:35:10.207Z,99.99
2023-04-02T01:36:10.208Z,99.99
2023-04-02T01:37:10.187Z,99.99
2023-04-02T01:38:10.162Z,99.99
2023-04-02T01:39:10.153Z,99.99
2023-04-02T01:40:10.231Z,99.99
2023-04-02T01:41:10.134Z,99.99
2023-04-02T01:42:10.164Z,99.99
2023-04-02T01:43:10.103Z,99.99
2023-04-02T01:44:10.138Z,99.99
2023-04-02T01:45:10.099Z,99.99
2023-04-02T01:46:10.141Z,99.99
2023-04-02T01:47:10.058Z,99.99
2023-04-02T01:48:10.084Z,99.99
2023-04-02T01:49:10.094Z,99.99
2023-04-02T01:50:10.112Z,99.99
2023-04-02T01:51:10.074Z,99.99
2023-04-02T01:52:10.042Z,99.99
2023-04-02T01:53:10.023Z,99.99
2023-04-02T01:54:09.992Z,99.99
2023-04-02T01:55:10.013Z,99.99
2023-04-02T01:56:10.007Z,99.99
2023-04-02T01:57:10.047Z,99.99
2023-04-02T01:58:09.977Z,99.99
2023-04-02T01:59:09.951Z,99.99
2023-04-02T02:00:09.979Z,99.99
2023-04-02T02:01:09.945Z,99.99
2023-04-02T02:02:09.940Z,99.99
2023-04-02T02:03:10.042Z,99.99
2023-04-02T02:04:09.923Z,99.99
2023-04-02T02:05:09.873Z,99.99
2023-04-02T02:06:09.983Z,99.99
2023-04-02T02:07:16.424Z,99.99
2023-04-02T02:08:09.846Z,99.99
2023-04-02T02:09:09.872Z,99.99
2023-04-02T02:10:09.859Z,99.99
2023-04-02T02:11:09.874Z,99.99
2023-04-02T02:12:09.836Z,99.99
2023-04-02T02:13:09.852Z,99.99
2023-04-02T02:14:09.846Z,99.99
2023-04-02T02:15:09.811Z,99.99
2023-04-02T02:16:09.831Z,99.99
2023-04-02T02:17:09.781Z,99.99
2023-04-02T02:18:09.777Z,99.99
2023-04-02T02:19:09.761Z,99.99
2023-04-02T02:20:09.753Z,99.99
2023-04-02T02:21:09.749Z,99.99
2023-04-02T02:22:09.742Z,99.99
2023-04-02T02:23:09.705Z,99.99
2023-04-02T02:24:09.727Z,99.99
2023-04-02T02:25:09.699Z,99.99
2023-04-02T02:26:09.677Z,99.99
2023-04-02T02:27:09.686Z,99.99
2023-04-02T02:28:09.654Z,99.99
2023-04-02T02:29:09.638Z,99.99
2023-04-02T02:30:09.655Z,99.99
2023-04-02T02:31:09.629Z,99.99
2023-04-02T02:32:09.696Z,99.99
2023-04-02T02:33:09.636Z,99.96
2023-04-02T02:34:09.608Z,99.99
2023-04-02T02:35:09.659Z,99.99
2023-04-02T02:36:09.741Z,99.99
2023-04-02T02:37:09.636Z,99.99
2023-04-02T02:38:09.579Z,99.99
2023-04-02T02:39:09.582Z,99.99
2023-04-02T02:40:09.577Z,99.76
2023-04-02T02:41:09.597Z,99.99
2023-04-02T02:42:09.572Z,99.76
2023-04-02T02:43:09.537Z,99.07
2023-04-02T02:44:09.501Z,98.86
2023-04-02T02:45:09.597Z,99.59
2023-04-02T02:46:09.514Z,99.12
2023-04-02T02:47:09.477Z,98.50
2023-04-02T02:48:09.607Z,99.33
2023-04-02T02:49:09.489Z,98.71
2023-04-02T02:50:09.436Z,98.96
2023-04-02T02:51:15.161Z,98.54
2023-04-02T02:52:09.417Z,98.75
2023-04-02T02:53:09.403Z,99.16
2023-04-02T02:54:09.403Z,99.06
2023-04-02T02:55:09.405Z,99.68
2023-04-02T02:56:09.374Z,99.48
2023-04-02T02:57:09.527Z,99.06
2023-04-02T02:58:09.392Z,98.44
2023-04-02T02:59:09.354Z,98.54
2023-04-02T03:00:09.366Z,98.65
2023-04-02T03:01:09.391Z,98.96
2023-04-02T03:02:09.397Z,98.13
2023-04-02T03:03:09.445Z,98.13
2023-04-02T03:04:09.488Z,98.02
2023-04-02T03:05:09.283Z,98.23
2023-04-02T03:06:09.313Z,98.44
2023-04-02T03:07:09.274Z,97.71
2023-04-02T03:08:09.263Z,97.81
2023-04-02T03:09:09.300Z,97.61
2023-04-02T03:10:09.287Z,97.19
2023-04-02T03:11:09.227Z,97.13
2023-04-02T03:12:09.215Z,96.92
2023-04-02T03:13:09.219Z,97.86
2023-04-02T03:14:09.205Z,98.38
2023-04-02T03:15:09.194Z,97.65
2023-04-02T03:16:09.293Z,98.44
2023-04-02T03:17:09.153Z,98.96
2023-04-02T03:18:09.164Z,97.13
2023-04-02T03:19:20.219Z,97.13
2023-04-02T03:20:09.170Z,97.34
2023-04-02T03:21:09.120Z,98.54
2023-04-02T03:22:09.114Z,97.86
2023-04-02T03:23:09.094Z,98.02
2023-04-02T03:24:09.125Z,97.50
2023-04-02T03:25:09.110Z,98.75
2023-04-02T03:26:09.061Z,99.68
2023-04-02T03:27:09.166Z,99.99
2023-04-02T03:28:09.060Z,99.99
2023-04-02T03:29:09.155Z,99.33
2023-04-02T03:30:09.047Z,95.53
2023-04-02T03:31:09.047Z,94.90
2023-04-02T03:32:09.013Z,96.47
2023-04-02T03:33:09.030Z,95.89
2023-04-02T03:34:09.008Z,95.57
2023-04-02T03:35:09.019Z,95.89
2023-04-02T03:36:09.018Z,96.82
2023-04-02T03:37:09.033Z,96.92
2023-04-02T03:38:09.017Z,97.34
2023-04-02T03:39:08.934Z,96.09
2023-04-02T03:40:09.047Z,96.09
2023-04-02T03:41:08.931Z,95.78
2023-04-02T03:42:08.927Z,97.13
2023-04-02T03:43:08.926Z,97.55
2023-04-02T03:44:08.915Z,97.13
2023-04-02T03:45:08.885Z,96.51
2023-04-02T03:46:08.931Z,95.57
2023-04-02T03:47:08.877Z,95.15
2023-04-02T03:48:08.890Z,95.83
2023-04-02T03:49:08.865Z,95.30
2023-04-02T03:50:08.848Z,95.09
2023-04-02T03:51:08.828Z,95.30
2023-04-02T03:52:08.819Z,96.14
2023-04-02T03:53:08.850Z,95.83
2023-04-02T03:54:08.849Z,95.62
2023-04-02T03:55:08.792Z,95.51
2023-04-02T03:56:08.781Z,95.51
2023-04-02T03:57:08.840Z,96.14
2023-04-02T03:58:08.764Z,96.55
2023-04-02T03:59:08.749Z,96.34
2023-04-02T04:00:08.766Z,96.97
2023-04-02T04:01:08.740Z,96.76
2023-04-02T04:02:08.808Z,97.55
2023-04-02T04:03:08.810Z,96.45
2023-04-02T04:04:08.724Z,96.24
2023-04-02T04:05:08.679Z,96.14
2023-04-02T04:06:08.689Z,96.66
2023-04-02T04:07:08.653Z,95.20
2023-04-02T04:08:08.716Z,94.89
2023-04-02T04:09:08.644Z,95.72
2023-04-02T04:10:08.641Z,96.97
2023-04-02T04:11:08.675Z,95.20
2023-04-02T04:12:08.630Z,94.41
2023-04-02T04:13:08.613Z,94.82
2023-04-02T04:14:08.604Z,94.62
2023-04-02T04:15:08.588Z,94.93
2023-04-02T04:16:08.584Z,94.72
2023-04-02T04:17:08.586Z,94.82
2023-04-02T04:18:08.604Z,95.45
2023-04-02T04:19:08.567Z,95.03
2023-04-02T04:20:08.551Z,94.72
2023-04-02T04:21:08.610Z,95.03
2023-04-02T04:22:08.941Z,96.39
2023-04-02T04:23:08.489Z,95.45
2023-04-02T04:24:08.517Z,94.41
2023-04-02T04:25:08.501Z,94.20
2023-04-02T04:26:08.516Z,94.51
2023-04-02T04:27:08.439Z,94.41
2023-04-02T04:28:08.462Z,94.51
2023-04-02T04:29:08.440Z,94.93
2023-04-02T04:30:08.471Z,96.18
2023-04-02T04:32:31.521Z,95.03
2023-04-02T04:33:32.471Z,94.72
2023-04-02T04:34:32.571Z,94.41
2023-04-02T04:35:32.544Z,94.31
2023-04-02T04:36:32.402Z,93.89
2023-04-02T04:37:32.398Z,94.93
2023-04-02T04:38:32.381Z,94.82
2023-04-02T04:39:32.361Z,93.99
2023-04-02T04:40:32.498Z,93.68
2023-04-02T04:41:32.420Z,93.89
2023-04-02T04:42:32.336Z,93.99
2023-04-02T04:43:32.355Z,94.41
2023-04-02T04:44:32.355Z,94.82
2023-04-02T04:45:32.540Z,94.72
2023-04-02T04:46:32.336Z,93.79
2023-04-02T04:47:32.339Z,93.05
2023-04-02T04:48:32.987Z,93.16
2023-04-02T04:49:32.269Z,93.41
2023-04-02T04:50:32.262Z,93.31
2023-04-02T04:51:32.264Z,93.62
2023-04-02T04:52:32.204Z,93.93
2023-04-02T04:53:32.278Z,93.79
2023-04-02T04:54:32.241Z,93.68
2023-04-02T04:55:32.194Z,92.89
2023-04-02T04:56:32.218Z,93.52
2023-04-02T04:57:32.190Z,93.62
2023-04-02T04:58:32.163Z,94.31
2023-04-02T04:59:32.221Z,94.41
2023-04-02T05:00:32.174Z,93.99
2023-04-02T05:01:32.201Z,93.68
2023-04-02T05:02:32.154Z,94.31
2023-04-02T05:03:32.131Z,93.68
2023-04-02T05:04:32.126Z,94.41
2023-04-02T05:05:32.144Z,94.62
2023-04-02T05:06:32.126Z,94.62
2023-04-02T05:07:32.084Z,94.72
2023-04-02T05:08:32.164Z,94.82
2023-04-02T05:09:32.078Z,95.76
2023-04-02T05:10:32.049Z,95.87
2023-04-02T05:11:32.133Z,95.76
2023-04-02T05:12:32.028Z,95.14
2023-04-02T05:13:32.111Z,95.39
2023-04-02T05:14:32.195Z,95.97
2023-04-02T05:15:32.039Z,96.08
2023-04-02T05:16:32.107Z,94.51
2023-04-02T05:17:32.743Z,94.72
2023-04-02T05:18:31.952Z,93.41
2023-04-02T05:19:32.217Z,93.52
2023-04-02T05:20:32.016Z,95.08
2023-04-02T05:21:31.934Z,94.76
2023-04-02T05:22:31.922Z,93.83
2023-04-02T05:23:31.936Z,93.93
2023-04-02T05:24:31.921Z,93.35
2023-04-02T05:25:31.928Z,94.08
2023-04-02T05:26:31.922Z,95.18
2023-04-02T05:27:31.878Z,93.87
2023-04-02T05:28:31.846Z,94.08
2023-04-02T05:29:31.874Z,94.18
2023-04-02T05:30:31.909Z,95.50
2023-04-02T05:31:31.877Z,95.39
2023-04-02T05:32:31.875Z,93.62
2023-04-02T05:33:31.827Z,93.10
2023-04-02T05:34:31.801Z,92.68
2023-04-02T05:35:31.886Z,92.52
2023-04-02T05:36:31.779Z,93.56
2023-04-02T05:37:31.813Z,93.46
2023-04-02T05:38:31.820Z,92.72
2023-04-02T05:39:31.778Z,92.72
2023-04-02T05:40:31.787Z,93.35
2023-04-02T05:41:31.857Z,92.62
2023-04-02T05:42:31.771Z,92.97
2023-04-02T05:43:40.797Z,94.18
2023-04-02T05:44:31.741Z,95.54
2023-04-02T05:45:31.727Z,93.66
2023-04-02T05:46:31.698Z,92.72
2023-04-02T05:47:31.730Z,93.77
2023-04-02T05:48:31.874Z,92.62
2023-04-02T05:49:31.684Z,92.83
2023-04-02T05:50:31.644Z,92.52
2023-04-02T05:51:31.682Z,92.93
2023-04-02T05:52:31.625Z,93.24
2023-04-02T05:53:31.648Z,94.29
2023-04-02T05:54:31.619Z,92.62
2023-04-02T05:55:31.624Z,93.04
2023-04-02T05:56:31.637Z,92.72
2023-04-02T05:57:42.786Z,93.04
2023-04-02T05:58:36.309Z,94.18
2023-04-02T05:59:31.631Z,92.41
2023-04-02T06:00:31.565Z,93.56
2023-04-02T06:01:31.680Z,93.24
2023-04-02T06:02:31.698Z,91.47
2023-04-02T06:03:31.657Z,91.78
2023-04-02T06:04:31.532Z,92.14
2023-04-02T06:05:31.538Z,93.08
2023-04-02T06:06:31.500Z,92.35
2023-04-02T06:07:31.495Z,92.87
2023-04-02T06:08:42.073Z,92.46
2023-04-02T06:09:31.452Z,92.97
2023-04-02T06:10:31.535Z,92.72
2023-04-02T06:11:31.463Z,92.00
2023-04-02T06:12:31.450Z,92.10
2023-04-02T06:13:31.723Z,92.52
2023-04-02T06:18:18.692Z,91.68
2023-04-02T06:19:19.614Z,91.89
2023-04-02T06:20:19.635Z,93.14
2023-04-02T06:21:19.589Z,91.89
2023-04-02T06:22:19.495Z,91.78
2023-04-02T06:33:28.806Z,91.72
2023-04-02T06:34:29.583Z,91.72
2023-04-02T06:35:29.626Z,91.83
2023-04-02T06:45:16.986Z,91.27
2023-04-02T06:46:17.966Z,91.68
2023-04-02T06:47:17.964Z,91.58
2023-04-02T06:48:17.912Z,91.47
2023-04-02T06:49:17.906Z,92.21
2023-04-02T06:50:17.948Z,91.27
2023-04-02T06:51:17.909Z,91.58
2023-04-02T06:52:17.889Z,91.47
2023-04-02T06:53:17.902Z,91.27
2023-04-02T06:54:17.974Z,91.06
2023-04-02T06:55:18.036Z,92.37
2023-04-02T06:56:17.947Z,91.02
2023-04-02T07:12:09.106Z,89.41
2023-04-02T07:13:09.841Z,89.52
2023-04-02T07:14:09.722Z,89.94
2023-04-02T07:15:10.680Z,89.20
2023-04-02T07:16:09.786Z,89.94
2023-04-02T07:17:09.687Z,89.10
2023-04-02T07:18:09.900Z,88.68
2023-04-02T07:19:09.667Z,88.42
2023-04-02T07:20:09.678Z,89.83
2023-04-02T07:21:09.721Z,89.00
2023-04-02T07:22:09.698Z,88.58
2023-04-02T07:23:09.617Z,88.79
2023-04-02T07:24:09.649Z,88.27
2023-04-02T07:25:09.605Z,88.27
2023-04-02T07:26:09.593Z,87.58
2023-04-02T07:27:09.616Z,88.52
2023-04-02T07:28:09.611Z,87.79
2023-04-02T07:29:09.562Z,87.99
2023-04-02T07:30:09.557Z,87.79
2023-04-02T07:31:09.601Z,88.48
2023-04-02T07:32:09.582Z,88.17
2023-04-02T07:33:09.558Z,88.06
2023-04-02T07:34:09.505Z,87.54
2023-04-02T07:35:09.503Z,87.89
2023-04-02T07:36:09.584Z,87.99
2023-04-02T07:37:09.453Z,88.31
2023-04-02T07:38:09.608Z,88.89
2023-04-02T07:39:09.471Z,90.25
2023-04-02T07:40:09.447Z,89.06
2023-04-02T07:41:09.458Z,88.54
2023-04-02T07:42:09.495Z,87.29
2023-04-02T07:43:09.420Z,86.88
2023-04-02T07:44:09.408Z,87.19
2023-04-02T07:45:09.418Z,87.50
2023-04-02T07:46:09.410Z,87.60
2023-04-02T07:47:09.480Z,86.57
2023-04-02T07:48:09.561Z,86.57
2023-04-02T07:49:09.363Z,86.46
2023-04-02T07:50:09.374Z,86.67
2023-04-02T07:51:09.385Z,87.19
2023-04-02T07:52:09.327Z,85.94
2023-04-02T07:53:09.320Z,87.04
2023-04-02T07:54:09.350Z,86.73
2023-04-02T07:55:09.305Z,86.21
2023-04-02T07:56:09.302Z,85.80
2023-04-02T07:57:09.303Z,85.28
2023-04-02T07:58:09.273Z,85.86
2023-04-02T07:59:09.248Z,85.34
2023-04-02T08:00:09.257Z,85.55
2023-04-02T08:01:09.225Z,86.90
2023-04-02T08:02:09.227Z,84.51
2023-04-02T08:03:09.325Z,85.13
2023-04-02T08:04:09.233Z,85.28
2023-04-02T08:05:09.198Z,84.86
2023-04-02T08:06:09.192Z,84.82
2023-04-02T08:07:09.168Z,84.23
2023-04-02T08:08:09.164Z,84.61
2023-04-02T08:09:09.151Z,85.75
2023-04-02T08:10:09.157Z,84.82
2023-04-02T08:11:09.161Z,84.78
2023-04-02T08:12:09.124Z,85.36
2023-04-02T08:13:09.102Z,83.50
2023-04-02T08:14:09.100Z,83.08
2023-04-02T08:15:09.211Z,82.77
2023-04-02T08:16:09.140Z,82.98
2023-04-02T08:17:09.060Z,83.39
2023-04-02T08:18:09.085Z,82.04
2023-04-02T08:19:09.037Z,82.56
2023-04-02T08:20:09.037Z,82.67
2023-04-02T08:21:09.040Z,82.35
2023-04-02T08:22:09.026Z,83.29
2023-04-02T08:23:09.005Z,82.15
2023-04-02T08:24:09.048Z,82.46
2023-04-02T08:25:08.973Z,83.87
2023-04-02T08:26:08.981Z,81.59
2023-04-02T08:27:08.997Z,81.49
2023-04-02T08:28:08.955Z,81.42
2023-04-02T08:29:08.960Z,81.42
2023-04-02T08:30:08.931Z,81.32
2023-04-02T08:31:09.043Z,81.77
2023-04-02T08:32:08.920Z,82.70
2023-04-02T08:33:08.934Z,82.70
2023-04-02T08:34:09.070Z,82.81
2023-04-02T08:35:08.878Z,84.01
2023-04-02T08:36:10.428Z,84.43
2023-04-02T08:37:08.854Z,83.70
2023-04-02T08:38:08.868Z,82.77
2023-04-02T08:39:08.850Z,81.73
2023-04-02T08:40:08.829Z,82.56
2023-04-02T08:41:08.827Z,81.87
2023-04-02T08:42:08.821Z,82.50
2023-04-02T08:43:08.819Z,83.33
2023-04-02T08:44:08.803Z,83.78
2023-04-02T08:45:23.723Z,83.37
2023-04-02T08:46:08.836Z,84.47
2023-04-02T08:47:08.774Z,83.95
2023-04-02T08:48:08.818Z,84.27
2023-04-02T08:49:08.744Z,83.01
2023-04-02T08:50:08.729Z,83.12
2023-04-02T08:51:08.707Z,83.95
2023-04-02T08:52:08.766Z,83.95
2023-04-02T08:53:08.695Z,83.33
2023-04-02T08:54:08.717Z,83.84
2023-04-02T08:55:08.667Z,83.74
2023-04-02T08:56:08.668Z,82.91
2023-04-02T08:57:08.704Z,82.39
2023-04-02T08:58:08.635Z,82.50
2023-04-02T08:59:08.700Z,82.91
2023-04-02T09:00:08.620Z,83.84
2023-04-02T09:01:08.689Z,84.05
2023-04-02T09:02:08.589Z,83.60
2023-04-02T09:03:08.624Z,82.25
2023-04-02T09:04:08.614Z,81.42
2023-04-02T09:05:08.691Z,81.63
2023-04-02T09:06:08.547Z,80.83
2023-04-02T09:07:08.547Z,80.21
2023-04-02T09:08:08.523Z,80.52
2023-04-02T09:09:08.543Z,81.25
2023-04-02T09:10:08.545Z,81.77
2023-04-02T09:11:08.511Z,80.63
2023-04-02T09:12:08.487Z,80.21
2023-04-02T09:13:08.487Z,80.59
2023-04-02T09:14:08.484Z,81.84
2023-04-02T09:15:08.468Z,80.59
2023-04-02T09:16:08.510Z,80.35
2023-04-02T09:17:08.450Z,79.51
2023-04-02T09:18:08.442Z,79.61
2023-04-02T09:19:08.429Z,78.61
2023-04-02T09:20:08.411Z,79.86
2023-04-02T09:21:08.437Z,81.32
2023-04-02T09:22:08.387Z,80.28
2023-04-02T09:23:08.399Z,78.72
2023-04-02T09:24:08.375Z,78.82
2023-04-02T09:25:14.954Z,79.44
2023-04-02T09:26:08.370Z,81.21
2023-04-02T09:27:08.380Z,78.51
2023-04-02T09:28:08.322Z,78.72
2023-04-02T09:29:08.357Z,78.20
2023-04-02T09:30:08.305Z,79.83
2023-04-02T09:31:08.340Z,77.33
2023-04-02T09:32:08.290Z,77.95
2023-04-02T09:33:08.364Z,76.71
2023-04-02T09:34:08.261Z,76.61
2023-04-02T09:35:15.059Z,77.54
2023-04-02T09:36:08.269Z,76.92
2023-04-02T09:37:08.262Z,77.12
2023-04-02T09:38:08.276Z,76.40
2023-04-02T09:39:08.256Z,76.19
2023-04-02T09:40:08.253Z,76.50
2023-04-02T09:41:08.206Z,77.20
2023-04-02T09:42:08.189Z,75.78
2023-04-02T09:43:08.191Z,74.63
2023-04-02T09:44:08.183Z,74.77
2023-04-02T09:45:08.172Z,76.40
2023-04-02T09:46:08.170Z,76.29
2023-04-02T09:47:08.147Z,76.78
2023-04-02T09:48:08.767Z,74.71
2023-04-02T09:49:08.127Z,74.50
2023-04-02T09:50:08.151Z,74.60
2023-04-02T09:51:08.160Z,75.64
2023-04-02T09:52:08.113Z,75.50
2023-04-02T09:53:08.080Z,75.19
2023-04-02T09:54:08.118Z,75.09
2023-04-02T09:55:08.101Z,75.78
2023-04-02T09:56:08.050Z,74.43
2023-04-02T09:57:08.175Z,74.84
2023-04-02T09:58:08.026Z,73.43
2023-04-02T09:59:08.390Z,74.46
2023-04-02T10:00:12.280Z,75.05
2023-04-02T10:01:08.116Z,74.11
2023-04-02T10:02:07.997Z,72.94
2023-04-02T10:03:08.046Z,71.91
2023-04-02T10:04:08.066Z,72.81
2023-04-02T10:05:08.829Z,69.90
2023-04-02T10:06:07.944Z,72.39
2023-04-02T10:07:07.959Z,71.70
2023-04-02T10:08:07.924Z,74.05
2023-04-02T10:09:07.923Z,71.84
2023-04-02T10:10:07.921Z,70.22
2023-04-02T10:11:07.891Z,70.32
2023-04-02T10:12:08.323Z,67.85
2023-04-02T10:13:07.878Z,70.74
2023-04-02T10:14:08.066Z,72.26
2023-04-02T10:15:07.900Z,69.67
2023-04-02T10:16:07.925Z,71.19
2023-04-02T10:17:07.863Z,69.33
2023-04-02T10:18:07.904Z,68.16
2023-04-02T10:19:07.854Z,68.16
2023-04-02T10:20:07.809Z,68.27
2023-04-02T10:21:07.794Z,67.06
2023-04-02T10:22:07.774Z,69.16
2023-04-02T10:23:07.792Z,71.47
2023-04-02T10:24:07.772Z,71.33
2023-04-02T10:25:07.743Z,68.06
2023-04-02T10:26:07.719Z,67.41
2023-04-02T10:27:07.741Z,68.44
2023-04-02T10:28:07.720Z,65.72
2023-04-02T10:29:07.760Z,67.19
2023-04-02T10:30:07.710Z,67.16
2023-04-02T10:31:07.725Z,69.23
2023-04-02T10:32:07.685Z,69.30
2023-04-02T10:33:07.704Z,68.96
2023-04-02T10:34:07.653Z,68.13
2023-04-02T10:35:07.685Z,67.96
2023-04-02T10:36:07.781Z,67.27
2023-04-02T10:37:07.649Z,68.30
2023-04-02T10:38:07.627Z,67.71
2023-04-02T10:39:07.597Z,68.74
2023-04-02T10:40:07.602Z,68.43
2023-04-02T10:41:07.593Z,69.47
2023-04-02T10:42:07.569Z,68.54
2023-04-02T10:43:07.589Z,68.82
2023-04-02T10:44:18.940Z,70.16
2023-04-02T10:45:07.559Z,71.67
2023-04-02T10:46:07.583Z,68.30
2023-04-02T10:47:07.533Z,67.71
2023-04-02T10:48:07.574Z,68.77
2023-04-02T10:49:07.602Z,68.95
2023-04-02T10:50:07.476Z,69.50
2023-04-02T10:51:07.492Z,71.22
2023-04-02T10:52:07.473Z,70.19
2023-04-02T10:53:07.488Z,67.12
2023-04-02T10:54:07.517Z,67.02
2023-04-02T10:55:07.448Z,67.43
2023-04-02T10:56:07.423Z,68.77
2023-04-02T10:57:07.516Z,68.15
2023-04-02T10:58:07.419Z,68.64
2023-04-02T10:59:07.428Z,66.71
2023-04-02T11:00:07.403Z,67.33
2023-04-02T11:01:07.411Z,68.54
2023-04-02T11:02:07.357Z,67.09
2023-04-02T11:03:07.505Z,66.03
2023-04-02T11:04:07.360Z,66.44
2023-04-02T11:05:07.364Z,65.64
2023-04-02T11:06:07.317Z,66.96
2023-04-02T11:07:14.302Z,67.78
2023-04-02T11:08:07.314Z,68.19
2023-04-02T11:09:07.312Z,69.09
2023-04-02T11:10:07.303Z,66.10
2023-04-02T11:11:07.292Z,66.23
2023-04-02T11:12:07.278Z,65.33
2023-04-02T11:13:07.257Z,67.61
2023-04-02T11:14:07.265Z,66.78
2023-04-02T11:15:07.234Z,68.82
2023-04-02T11:16:07.277Z,68.48
2023-04-02T11:17:07.207Z,68.16
2023-04-02T11:18:07.200Z,67.00
2023-04-02T11:19:07.228Z,65.34
2023-04-02T11:20:07.221Z,68.41
2023-04-02T11:21:07.181Z,65.24
2023-04-02T11:22:07.168Z,65.45
2023-04-02T11:23:07.143Z,67.51
2023-04-02T11:24:07.143Z,66.20
2023-04-02T11:25:07.149Z,65.72
2023-04-02T11:26:07.107Z,66.85
2023-04-02T11:27:07.121Z,68.33
2023-04-02T11:28:07.117Z,68.02
2023-04-02T11:29:07.093Z,67.40
2023-04-02T11:30:07.103Z,67.91
2023-04-02T11:31:07.108Z,68.98
2023-04-02T11:32:07.054Z,67.98
2023-04-02T11:33:07.107Z,67.88
2023-04-02T11:34:07.029Z,68.01
2023-04-02T11:35:09.851Z,68.22
2023-04-02T11:36:07.052Z,69.98
2023-04-02T11:37:07.041Z,69.67
2023-04-02T11:38:06.983Z,69.15
2023-04-02T11:39:16.580Z,69.25
2023-04-02T11:40:07.176Z,68.74
2023-04-02T11:41:06.966Z,68.43
2023-04-02T11:42:06.957Z,69.32
2023-04-02T11:43:06.953Z,67.85
2023-04-02T11:44:06.978Z,66.88
2023-04-02T11:45:06.968Z,66.88
2023-04-02T11:46:06.922Z,67.34
2023-04-02T11:47:06.904Z,67.41
2023-04-02T11:48:06.942Z,69.10
2023-04-02T11:49:06.880Z,65.91
2023-04-02T11:50:06.914Z,65.56
2023-04-02T11:51:06.911Z,64.46
2023-04-02T11:52:12.318Z,64.77
2023-04-02T11:53:06.863Z,65.77
2023-04-02T11:54:06.834Z,63.29
2023-04-02T11:55:06.833Z,62.47
2023-04-02T11:56:06.808Z,65.15
2023-04-02T11:57:06.857Z,66.05
2023-04-02T11:58:06.781Z,65.92
2023-04-02T11:59:06.793Z,62.00
2023-04-02T12:00:06.800Z,62.03
2023-04-02T12:01:06.757Z,62.24
2023-04-02T12:02:06.824Z,61.68
2023-04-02T12:03:06.883Z,62.40
2023-04-02T12:04:06.751Z,62.71
2023-04-02T12:05:06.830Z,62.71
2023-04-02T12:06:06.725Z,62.81
2023-04-02T12:07:06.697Z,62.71
2023-04-02T12:08:06.676Z,61.68
2023-04-02T12:09:06.675Z,62.12
2023-04-02T12:10:06.704Z,62.01
2023-04-02T12:11:06.660Z,63.46
2023-04-02T12:12:06.664Z,64.07
2023-04-02T12:13:06.631Z,64.67
2023-04-02T12:14:06.612Z,62.81
2023-04-02T12:15:06.619Z,63.64
2023-04-02T12:16:06.605Z,63.92
2023-04-02T12:17:09.304Z,63.47
2023-04-02T12:18:06.637Z,63.78
2023-04-02T12:19:06.570Z,64.78
2023-04-02T12:20:06.557Z,63.27
2023-04-02T12:21:06.545Z,61.93
2023-04-02T12:22:06.533Z,62.44
2023-04-02T12:23:06.537Z,63.37
2023-04-02T12:24:06.514Z,61.18
2023-04-02T12:25:06.602Z,62.41
2023-04-02T12:26:06.488Z,61.82
2023-04-02T12:27:06.488Z,63.96
2023-04-02T12:28:06.488Z,62.52
2023-04-02T12:29:06.454Z,62.82
2023-04-02T12:30:06.461Z,64.54
2023-04-02T12:31:06.471Z,65.68
2023-04-02T12:32:06.424Z,64.24
2023-04-02T12:33:06.422Z,65.34
2023-04-02T12:34:06.431Z,61.84
2023-04-02T12:35:06.401Z,62.28
2023-04-02T12:36:06.394Z,61.96
2023-04-02T12:37:06.377Z,62.81
2023-04-02T12:38:06.351Z,64.04
2023-04-02T12:39:06.363Z,66.11
2023-04-02T12:40:06.401Z,66.21
2023-04-02T12:41:06.323Z,66.31
2023-04-02T12:42:06.300Z,64.15
2023-04-02T12:43:06.349Z,65.18
2023-04-02T12:44:06.329Z,63.25
2023-04-02T12:45:06.315Z,63.59
2023-04-02T12:46:06.313Z,64.24
2023-04-02T12:47:06.285Z,64.96
2023-04-02T12:48:06.268Z,64.58
2023-04-02T12:49:06.315Z,65.92
2023-04-02T12:50:06.265Z,64.86
2023-04-02T12:51:06.279Z,65.48
2023-04-02T12:52:06.210Z,66.61
2023-04-02T12:53:06.217Z,66.58
2023-04-02T12:54:06.216Z,64.90
2023-04-02T12:55:06.191Z,63.49
2023-04-02T12:56:06.171Z,65.34
2023-04-02T12:57:06.184Z,63.67
2023-04-02T12:58:06.149Z,64.07
2023-04-02T12:59:06.162Z,63.35
2023-04-02T13:00:06.391Z,62.94
2023-04-02T13:01:06.119Z,65.39
2023-04-02T13:02:06.219Z,64.25
2023-04-02T13:03:06.169Z,63.84
2023-04-02T13:04:06.201Z,63.81
2023-04-02T13:05:06.087Z,63.40
2023-04-02T13:06:12.617Z,63.12
2023-04-02T13:07:06.648Z,63.64
2023-04-02T13:08:06.653Z,62.81
2023-04-02T13:09:06.052Z,64.04
2023-04-02T13:10:06.040Z,63.95
2023-04-02T13:11:06.061Z,63.04
2023-04-02T13:12:06.028Z,63.97
2023-04-02T13:13:05.995Z,64.59
2023-04-02T13:14:06.010Z,64.31
2023-04-02T13:15:05.959Z,63.28
2023-04-02T13:16:06.018Z,64.11
2023-04-02T13:17:05.969Z,64.00
2023-04-02T13:18:05.954Z,65.31
2023-04-02T13:19:05.970Z,63.77
2023-04-02T13:20:05.973Z,63.15
2023-04-02T13:21:05.914Z,64.56
2023-04-02T13:22:05.925Z,64.77
2023-04-02T13:23:05.905Z,63.95
2023-04-02T13:24:05.880Z,66.52
2023-04-02T13:25:05.899Z,64.56
2023-04-02T13:26:05.878Z,62.71
2023-04-02T13:27:05.877Z,63.12
2023-04-02T13:28:05.847Z,64.67
2023-04-02T13:29:05.812Z,62.63
2023-04-02T13:30:05.842Z,63.12
2023-04-02T13:31:05.845Z,63.74